createdAt,value
2023-05-21T00:01:39.202Z,100492.13
2023-05-21T00:04:07.663Z,100488.84
2023-05-21T00:06:36.076Z,100490.19
2023-05-21T00:09:05.730Z,100491.31
2023-05-21T00:11:33.824Z,100493.38
2023-05-21T00:14:01.391Z,100484.88
2023-05-21T00:16:29.146Z,100487.56
2023-05-21T00:18:58.098Z,100488.03
2023-05-21T00:21:26.459Z,100492.34
2023-05-21T00:23:56.338Z,100481.00
2023-05-21T00:26:25.340Z,100480.41
2023-05-21T00:28:52.845Z,100475.63
2023-05-21T00:31:20.478Z,100475.47
2023-05-21T00:33:48.096Z,100470.72
2023-05-21T00:36:15.826Z,100468.47
2023-05-21T00:38:45.580Z,100465.47
2023-05-21T00:41:13.393Z,100467.25
2023-05-21T00:43:42.411Z,100464.56
2023-05-21T00:46:13.663Z,100446.19
2023-05-21T00:48:41.348Z,100461.97
2023-05-21T00:51:09.023Z,100466.06
2023-05-21T00:53:36.948Z,100453.53
2023-05-21T00:56:05.144Z,100459.72
2023-05-21T00:58:33.373Z,100458.31
2023-05-21T01:01:03.584Z,100456.22
2023-05-21T01:03:38.501Z,100445.13
2023-05-21T01:06:06.780Z,100450.72
2023-05-21T01:08:34.981Z,100449.22
2023-05-21T01:11:03.181Z,100444.72
2023-05-21T01:13:31.334Z,100441.00
2023-05-21T01:15:59.882Z,100437.94
2023-05-21T01:18:28.744Z,100440.63
2023-05-21T01:20:59.270Z,100435.31
2023-05-21T01:23:28.435Z,100429.28
2023-05-21T01:25:56.077Z,100423.97
2023-05-21T01:28:23.639Z,100428.22
2023-05-21T01:30:51.268Z,100427.03
2023-05-21T01:33:23.321Z,100424.56
2023-05-21T01:35:53.693Z,100424.56
2023-05-21T01:38:24.182Z,100420.38
2023-05-21T01:40:54.984Z,100424.13
2023-05-21T01:43:23.699Z,100422.50
2023-05-21T01:45:52.691Z,100415.03
2023-05-21T01:48:20.294Z,100412.09
2023-05-21T01:50:48.682Z,100418.16
2023-05-21T01:53:17.218Z,100413.84
2023-05-21T01:55:45.885Z,100419.66
2023-05-21T01:58:15.644Z,100414.72
2023-05-21T02:00:45.320Z,100406.44
2023-05-21T02:03:13.748Z,100406.06
2023-05-21T02:05:41.345Z,100411.13
2023-05-21T02:08:09.259Z,100415.19
2023-05-21T02:10:36.759Z,100401.16
2023-05-21T02:13:04.343Z,100394.53
2023-05-21T02:15:34.780Z,100392.88
2023-05-21T02:18:02.735Z,100399.50
2023-05-21T02:20:31.829Z,100402.41
2023-05-21T02:22:59.342Z,100397.88
2023-05-21T02:25:26.887Z,100399.72
2023-05-21T02:27:56.653Z,100399.50
2023-05-21T02:30:24.179Z,100406.16
2023-05-21T02:32:53.056Z,100402.41
2023-05-21T02:35:20.639Z,100397.88
2023-05-21T02:37:48.940Z,100400.78
2023-05-21T02:40:16.541Z,100394.66
2023-05-21T02:42:44.051Z,100398.31
2023-05-21T02:45:12.439Z,100394.91
2023-05-21T02:47:40.768Z,100401.38
2023-05-21T02:50:10.263Z,100402.88
2023-05-21T02:52:37.757Z,100400.53
2023-05-21T02:55:05.986Z,100398.03
2023-05-21T02:57:33.451Z,100391.00
2023-05-21T03:00:01.095Z,100400.25
2023-05-21T03:02:28.645Z,100404.41
2023-05-21T03:04:56.149Z,100405.47
2023-05-21T03:07:24.976Z,100397.59
2023-05-21T03:09:52.468Z,100397.41
2023-05-21T03:12:19.942Z,100397.59
2023-05-21T03:14:47.449Z,100393.22
2023-05-21T03:17:15.211Z,100393.91
2023-05-21T03:19:42.953Z,100388.97
2023-05-21T03:22:11.332Z,100384.81
2023-05-21T03:24:41.335Z,100387.28
2023-05-21T03:27:08.946Z,100386.41
2023-05-21T03:29:37.553Z,100378.19
2023-05-21T03:32:06.207Z,100383.16
2023-05-21T03:34:35.498Z,100388.16
2023-05-21T03:37:03.003Z,100380.69
2023-05-21T03:39:30.545Z,100380.91
2023-05-21T03:41:59.379Z,100386.50
2023-05-21T03:44:26.879Z,100385.75
2023-05-21T03:46:54.450Z,100386.06
2023-05-21T03:49:21.943Z,100387.13
2023-05-21T03:51:49.431Z,100380.84
2023-05-21T03:54:16.929Z,100382.34
2023-05-21T03:56:44.462Z,100385.63
2023-05-21T03:59:13.287Z,100386.41
2023-05-21T04:01:40.813Z,100386.16
2023-05-21T04:04:08.430Z,100386.00
2023-05-21T04:06:36.757Z,100386.00
2023-05-21T04:09:04.718Z,100390.09
2023-05-21T04:11:32.286Z,100392.13
2023-05-21T04:13:59.807Z,100391.66
2023-05-21T04:16:28.743Z,100393.41
2023-05-21T04:18:56.438Z,100394.66
2023-05-21T04:21:23.995Z,100394.66
2023-05-21T04:23:53.826Z,100405.31
2023-05-21T04:26:21.339Z,100396.69
2023-05-21T04:28:48.821Z,100401.00
2023-05-21T04:31:16.399Z,100397.50
2023-05-21T04:33:45.802Z,100403.69
2023-05-21T04:36:13.451Z,100402.19
2023-05-21T04:38:41.796Z,100401.16
2023-05-21T04:41:10.775Z,100405.03
2023-05-21T04:43:43.863Z,100402.94
2023-05-21T04:46:11.364Z,100406.44
2023-05-21T04:48:39.036Z,100403.25
2023-05-21T04:51:07.907Z,100406.31
2023-05-21T04:53:35.862Z,100395.78
2023-05-21T04:56:03.886Z,100411.81
2023-05-21T04:58:32.866Z,100410.53
2023-05-21T05:01:02.914Z,100402.19
2023-05-21T05:03:31.034Z,100413.66
2023-05-21T05:05:58.567Z,100406.56
2023-05-21T05:08:27.450Z,100402.47
2023-05-21T05:10:54.930Z,100408.22
2023-05-21T05:13:22.494Z,100406.50
2023-05-21T05:15:51.036Z,100402.91
2023-05-21T05:18:19.490Z,100407.84
2023-05-21T05:20:47.674Z,100407.53
2023-05-21T05:23:15.679Z,100408.75
2023-05-21T05:25:44.553Z,100407.91
2023-05-21T05:28:12.057Z,100405.00
2023-05-21T05:30:39.623Z,100405.16
2023-05-21T05:33:07.166Z,100401.63
2023-05-21T05:35:34.832Z,100401.63
2023-05-21T05:38:02.452Z,100403.41
2023-05-21T05:40:29.948Z,100408.94
2023-05-21T05:42:58.785Z,100409.41
2023-05-21T05:45:26.717Z,100402.53
2023-05-21T05:47:54.256Z,100405.22
2023-05-21T05:50:22.144Z,100407.91
2023-05-21T05:52:49.638Z,100404.75
2023-05-21T05:55:17.640Z,100411.91
2023-05-21T05:57:45.355Z,100409.81
2023-05-21T06:00:15.574Z,100409.69
2023-05-21T06:02:43.180Z,100409.38
2023-05-21T06:05:11.516Z,100412.41
2023-05-21T06:07:39.451Z,100409.25
2023-05-21T06:10:07.731Z,100409.84
2023-05-21T06:12:35.474Z,100415.25
2023-05-21T06:15:03.233Z,100407.16
2023-05-21T06:17:32.166Z,100414.19
2023-05-21T06:19:59.698Z,100410.47
2023-05-21T06:22:27.222Z,100411.50
2023-05-21T06:24:54.756Z,100412.22
2023-05-21T06:27:22.376Z,100408.81
2023-05-21T06:29:49.879Z,100408.72
2023-05-21T06:32:17.436Z,100410.94
2023-05-21T06:34:46.785Z,100410.00
2023-05-21T06:37:14.295Z,100411.41
2023-05-21T06:39:41.787Z,100407.91
2023-05-21T06:42:09.292Z,100401.47
2023-05-21T06:44:36.984Z,100406.63
2023-05-21T06:47:04.561Z,100400.88
2023-05-21T06:49:33.048Z,100398.09
2023-05-21T06:52:02.350Z,100405.59
2023-05-21T06:54:29.961Z,100407.09
2023-05-21T06:56:57.432Z,100405.69
2023-05-21T06:59:24.953Z,100417.97
2023-05-21T07:01:52.614Z,100416.91
2023-05-21T07:04:20.131Z,100415.97
2023-05-21T07:06:48.436Z,100418.63
2023-05-21T07:09:18.212Z,100417.97
2023-05-21T07:11:45.693Z,100412.03
2023-05-21T07:14:13.246Z,100413.28
2023-05-21T07:16:40.846Z,100409.22
2023-05-21T07:19:08.402Z,100411.72
2023-05-21T07:21:35.964Z,100408.88
2023-05-21T07:24:03.503Z,100410.41
2023-05-21T07:26:32.360Z,100409.78
2023-05-21T07:28:59.957Z,100406.34
2023-05-21T07:31:27.884Z,100405.38
2023-05-21T07:33:55.479Z,100397.34
2023-05-21T07:36:22.982Z,100401.63
2023-05-21T07:38:51.098Z,100399.44
2023-05-21T07:41:18.929Z,100396.78
2023-05-21T07:43:47.979Z,100396.44
2023-05-21T07:46:15.558Z,100402.88
2023-05-21T07:48:43.568Z,100398.66
2023-05-21T07:51:11.486Z,100397.75
2023-05-21T07:53:39.093Z,100396.28
2023-05-21T07:56:07.276Z,100394.31
2023-05-21T07:58:35.365Z,100403.31
2023-05-21T08:01:04.284Z,100397.13
2023-05-21T08:03:32.457Z,100392.75
2023-05-21T08:06:00.072Z,100401.03
2023-05-21T08:08:27.646Z,100397.25
2023-05-21T08:10:55.504Z,100396.38
2023-05-21T08:13:23.109Z,100401.44
2023-05-21T08:15:52.838Z,100406.84
2023-05-21T08:18:23.690Z,100397.41
2023-05-21T08:20:51.623Z,100412.38
2023-05-21T08:23:19.151Z,100397.88
2023-05-21T08:25:46.755Z,100403.13
2023-05-21T08:28:14.340Z,100399.91
2023-05-21T08:30:41.960Z,100410.03
2023-05-21T08:33:09.520Z,100400.50
2023-05-21T08:35:38.797Z,100403.75
2023-05-21T08:38:06.558Z,100393.28
2023-05-21T08:40:35.413Z,100396.94
2023-05-21T08:43:02.937Z,100393.63
2023-05-21T08:45:37.726Z,100399.41
2023-05-21T08:48:07.151Z,100400.34
2023-05-21T08:50:34.641Z,100399.59
2023-05-21T08:53:07.577Z,100397.91
2023-05-21T08:55:44.518Z,100387.47
2023-05-21T08:58:12.208Z,100390.03
2023-05-21T09:00:39.708Z,100385.81
2023-05-21T09:03:10.266Z,100388.00
2023-05-21T09:05:40.557Z,100385.84
2023-05-21T09:08:15.174Z,100395.06
2023-05-21T09:10:47.945Z,100390.88
2023-05-21T09:13:17.232Z,100395.06
2023-05-21T09:15:45.161Z,100390.91
2023-05-21T09:18:13.397Z,100388.59
2023-05-21T09:20:41.515Z,100381.34
2023-05-21T09:23:12.514Z,100386.25
2023-05-21T09:25:40.268Z,100384.06
2023-05-21T09:28:13.151Z,100383.22
2023-05-21T09:30:45.241Z,100382.50
2023-05-21T09:33:12.948Z,100377.03
2023-05-21T09:35:46.312Z,100375.41
2023-05-21T09:38:15.186Z,100370.00
2023-05-21T09:40:46.480Z,100359.47
2023-05-21T09:43:15.454Z,100358.44
2023-05-21T09:45:52.983Z,100357.38
2023-05-21T09:48:34.467Z,100361.75
2023-05-21T09:51:12.919Z,100366.66
2023-05-21T09:53:52.123Z,100358.25
2023-05-21T09:56:24.676Z,100359.38
2023-05-21T09:58:54.574Z,100363.19
2023-05-21T10:01:22.697Z,100370.78
2023-05-21T10:04:01.802Z,100355.56
2023-05-21T10:06:31.196Z,100349.56
2023-05-21T10:09:02.547Z,100357.19
2023-05-21T10:11:32.941Z,100355.84
2023-05-21T10:14:04.312Z,100355.28
2023-05-21T10:16:34.089Z,100350.41
2023-05-21T10:19:01.848Z,100348.22
2023-05-21T10:21:29.517Z,100346.03
2023-05-21T10:24:01.275Z,100345.47
2023-05-21T10:26:29.310Z,100353.09
2023-05-21T10:28:58.452Z,100334.59
2023-05-21T10:31:26.640Z,100359.06
2023-05-21T10:33:55.325Z,100338.94
2023-05-21T10:36:23.164Z,100337.31
2023-05-21T10:38:50.729Z,100340.56
2023-05-21T10:41:20.898Z,100326.94
2023-05-21T10:44:05.646Z,100324.16
2023-05-21T10:46:54.216Z,100320.88
2023-05-21T10:49:36.407Z,100327.13
2023-05-21T10:52:09.073Z,100323.25
2023-05-21T10:55:09.509Z,100322.97
2023-05-21T10:58:03.383Z,100318.13
2023-05-21T11:00:32.430Z,100316.25
2023-05-21T11:03:00.567Z,100317.56
2023-05-21T11:05:39.631Z,100314.31
2023-05-21T11:08:07.491Z,100312.59
2023-05-21T11:10:39.690Z,100316.91
2023-05-21T11:13:13.948Z,100317.47
2023-05-21T11:16:05.726Z,100323.66
2023-05-21T11:19:00.678Z,100319.75
2023-05-21T11:21:35.420Z,100315.16
2023-05-21T11:24:06.304Z,100307.75
2023-05-21T11:27:04.776Z,100311.28
2023-05-21T11:29:41.567Z,100304.72
2023-05-21T11:32:10.413Z,100305.69
2023-05-21T11:34:39.643Z,100301.13
2023-05-21T11:37:28.977Z,100297.63
2023-05-21T11:39:57.957Z,100293.75
2023-05-21T11:42:32.650Z,100292.91
2023-05-21T11:45:02.698Z,100289.78
2023-05-21T11:47:31.983Z,100287.41
2023-05-21T11:50:01.122Z,100289.84
2023-05-21T11:52:30.338Z,100293.94
2023-05-21T11:54:59.790Z,100295.50
2023-05-21T11:57:30.802Z,100287.69
2023-05-21T11:59:59.707Z,100296.09
2023-05-21T12:02:33.878Z,100291.38
2023-05-21T12:05:01.870Z,100296.78
2023-05-21T12:07:31.289Z,100294.06
2023-05-21T12:09:59.441Z,100285.59
2023-05-21T12:12:33.028Z,100285.84
2023-05-21T12:15:12.553Z,100292.63
2023-05-21T12:17:42.033Z,100285.44
2023-05-21T12:20:10.798Z,100280.56
2023-05-21T12:22:43.494Z,100280.19
2023-05-21T12:25:11.978Z,100284.84
2023-05-21T12:27:40.009Z,100288.91
2023-05-21T12:30:09.677Z,100283.59
2023-05-21T12:32:38.179Z,100288.31
2023-05-21T12:35:07.828Z,100287.47
2023-05-21T12:37:35.819Z,100283.53
2023-05-21T12:40:07.717Z,100287.88
2023-05-21T12:42:35.636Z,100288.75
2023-05-21T12:45:07.189Z,100277.56
2023-05-21T12:47:34.871Z,100278.44
2023-05-21T12:50:06.365Z,100272.38
2023-05-21T12:52:35.482Z,100282.56
2023-05-21T12:55:03.077Z,100276.66
2023-05-21T12:57:38.737Z,100272.00
2023-05-21T13:00:07.854Z,100272.44
2023-05-21T13:02:36.971Z,100264.34
2023-05-21T13:05:06.456Z,100263.38
2023-05-21T13:07:36.489Z,100260.66
2023-05-21T13:10:05.994Z,100252.50
2023-05-21T13:12:34.425Z,100265.50
2023-05-21T13:15:03.235Z,100261.56
2023-05-21T13:17:31.061Z,100262.41
2023-05-21T13:20:09.394Z,100255.09
2023-05-21T13:22:42.256Z,100264.06
2023-05-21T13:25:11.024Z,100258.00
2023-05-21T13:27:38.721Z,100262.53
2023-05-21T13:30:07.675Z,100252.22
2023-05-21T13:32:35.424Z,100244.69
2023-05-21T13:35:03.289Z,100248.50
2023-05-21T13:37:30.796Z,100245.63
2023-05-21T13:40:00.226Z,100250.47
2023-05-21T13:42:28.343Z,100255.94
2023-05-21T13:44:55.963Z,100257.06
2023-05-21T13:47:24.018Z,100251.75
2023-05-21T13:49:51.947Z,100255.63
2023-05-21T13:52:22.248Z,100247.53
2023-05-21T13:54:49.834Z,100249.63
2023-05-21T13:57:18.969Z,100250.47
2023-05-21T13:59:46.493Z,100250.13
2023-05-21T14:02:14.165Z,100245.06
2023-05-21T14:04:41.713Z,100241.59
2023-05-21T14:07:09.744Z,100236.75
2023-05-21T14:09:37.436Z,100244.03
2023-05-21T14:12:06.766Z,100242.31
2023-05-21T14:14:36.185Z,100248.28
2023-05-21T14:17:03.878Z,100252.06
2023-05-21T14:19:31.768Z,100248.91
2023-05-21T14:21:59.982Z,100239.28
2023-05-21T14:24:27.593Z,100237.31
2023-05-21T14:26:55.523Z,100245.50
2023-05-21T14:29:23.344Z,100237.38
2023-05-21T14:31:52.417Z,100231.91
2023-05-21T14:34:20.027Z,100244.47
2023-05-21T14:36:47.563Z,100249.16
2023-05-21T14:39:15.099Z,100239.63
2023-05-21T14:41:42.643Z,100240.44
2023-05-21T14:44:10.130Z,100245.31
2023-05-21T14:46:37.770Z,100246.22
2023-05-21T14:49:06.665Z,100245.09
2023-05-21T14:51:34.182Z,100235.59
2023-05-21T14:54:01.727Z,100235.75
2023-05-21T14:56:29.212Z,100241.53
2023-05-21T14:58:57.168Z,100233.53
2023-05-21T15:01:24.936Z,100237.50
2023-05-21T15:03:52.601Z,100235.75
2023-05-21T15:06:21.578Z,100230.50
2023-05-21T15:08:49.186Z,100234.97
2023-05-21T15:11:16.707Z,100224.81
2023-05-21T15:13:44.202Z,100223.13
2023-05-21T15:16:14.331Z,100228.78
2023-05-21T15:18:44.831Z,100225.94
2023-05-21T15:21:12.658Z,100223.22
2023-05-21T15:23:42.297Z,100229.38
2023-05-21T15:26:10.211Z,100219.78
2023-05-21T15:28:38.321Z,100227.69
2023-05-21T15:31:06.034Z,100220.56
2023-05-21T15:33:34.156Z,100220.38
2023-05-21T15:36:03.307Z,100221.78
2023-05-21T15:38:31.219Z,100220.78
2023-05-21T15:41:00.367Z,100215.31
2023-05-21T15:43:27.959Z,100217.09
2023-05-21T15:45:57.826Z,100205.72
2023-05-21T15:48:25.546Z,100207.88
2023-05-21T15:50:53.108Z,100211.00
2023-05-21T15:53:20.681Z,100202.75
2023-05-21T15:55:48.831Z,100203.59
2023-05-21T15:58:17.655Z,100201.97
2023-05-21T16:00:45.286Z,100196.00
2023-05-21T16:03:13.457Z,100197.13
2023-05-21T16:05:41.351Z,100200.06
2023-05-21T16:08:10.718Z,100202.09
2023-05-21T16:10:39.930Z,100195.69
2023-05-21T16:13:07.811Z,100204.09
2023-05-21T16:15:37.312Z,100205.06
2023-05-21T16:18:05.346Z,100203.84
2023-05-21T16:20:33.338Z,100208.31
2023-05-21T16:23:00.901Z,100198.84
2023-05-21T16:25:31.078Z,100198.28
2023-05-21T16:27:58.622Z,100198.06
2023-05-21T16:30:26.460Z,100206.19
2023-05-21T16:32:55.675Z,100203.91
2023-05-21T16:35:23.233Z,100201.44
2023-05-21T16:37:51.058Z,100194.81
2023-05-21T16:40:18.588Z,100197.97
2023-05-21T16:42:46.153Z,100199.66
2023-05-21T16:45:20.342Z,100198.84
2023-05-21T16:47:48.728Z,100208.50
2023-05-21T16:50:18.041Z,100197.88
2023-05-21T16:52:45.738Z,100199.03
2023-05-21T16:55:13.303Z,100206.13
2023-05-21T16:57:40.900Z,100209.97
2023-05-21T17:00:09.350Z,100199.63
2023-05-21T17:02:37.038Z,100202.94
2023-05-21T17:05:05.161Z,100203.03
2023-05-21T17:07:34.067Z,100217.34
2023-05-21T17:10:01.578Z,100201.72
2023-05-21T17:12:29.094Z,100211.88
2023-05-21T17:14:56.608Z,100211.19
2023-05-21T17:17:24.202Z,100209.84
2023-05-21T17:19:51.706Z,100208.72
2023-05-21T17:22:19.732Z,100213.34
2023-05-21T17:24:48.746Z,100215.94
2023-05-21T17:27:16.312Z,100211.44
2023-05-21T17:29:44.863Z,100212.06
2023-05-21T17:32:12.942Z,100211.00
2023-05-21T17:34:40.578Z,100203.22
2023-05-21T17:37:08.114Z,100213.31
2023-05-21T17:39:35.623Z,100221.25
2023-05-21T17:42:04.884Z,100220.78
2023-05-21T17:44:32.438Z,100220.38
2023-05-21T17:46:59.993Z,100214.31
2023-05-21T17:49:27.732Z,100222.72
2023-05-21T17:51:55.445Z,100228.34
2023-05-21T17:54:23.275Z,100219.13
2023-05-21T17:56:50.789Z,100214.16
2023-05-21T17:59:21.135Z,100219.53
2023-05-21T18:01:48.716Z,100219.91
2023-05-21T18:04:16.368Z,100222.31
2023-05-21T18:06:44.037Z,100220.69
2023-05-21T18:09:14.194Z,100222.84
2023-05-21T18:11:43.543Z,100223.19
2023-05-21T18:14:11.103Z,100215.34
2023-05-21T18:16:40.029Z,100208.53
2023-05-21T18:19:07.721Z,100216.84
2023-05-21T18:21:35.567Z,100217.00
2023-05-21T18:24:03.255Z,100223.13
2023-05-21T18:26:31.031Z,100227.91
2023-05-21T18:28:58.952Z,100225.31
2023-05-21T18:31:26.707Z,100223.13
2023-05-21T18:33:55.645Z,100222.34
2023-05-21T18:36:23.850Z,100224.91
2023-05-21T18:38:52.224Z,100224.41
2023-05-21T18:41:19.956Z,100216.28
2023-05-21T18:43:47.567Z,100215.41
2023-05-21T18:46:15.096Z,100228.09
2023-05-21T18:48:42.630Z,100219.25
2023-05-21T18:51:11.465Z,100227.91
2023-05-21T18:53:39.174Z,100221.22
2023-05-21T18:56:07.401Z,100217.22
2023-05-21T18:58:35.825Z,100220.59
2023-05-21T19:01:03.407Z,100226.41
2023-05-21T19:03:32.046Z,100208.81
2023-05-21T19:05:59.591Z,100219.81
2023-05-21T19:08:28.531Z,100214.97
2023-05-21T19:10:56.303Z,100221.00
2023-05-21T19:13:24.370Z,100228.63
2023-05-21T19:15:51.963Z,100223.22
2023-05-21T19:18:19.595Z,100224.88
2023-05-21T19:20:47.210Z,100230.88
2023-05-21T19:23:15.186Z,100234.19
2023-05-21T19:25:44.269Z,100236.34
2023-05-21T19:28:11.909Z,100240.97
2023-05-21T19:30:39.767Z,100246.63
2023-05-21T19:33:07.545Z,100243.63
2023-05-21T19:35:35.093Z,100244.19
2023-05-21T19:38:04.955Z,100243.91
2023-05-21T19:40:32.854Z,100245.47
2023-05-21T19:43:02.699Z,100250.91
2023-05-21T19:45:30.263Z,100256.59
2023-05-21T19:47:59.200Z,100256.28
2023-05-21T19:50:28.470Z,100255.19
2023-05-21T19:52:56.034Z,100255.59
2023-05-21T19:55:24.540Z,100255.56
2023-05-21T19:57:52.293Z,100255.81
2023-05-21T20:00:22.273Z,100262.03
2023-05-21T20:02:49.892Z,100257.91
2023-05-21T20:05:18.519Z,100253.50
2023-05-21T20:07:46.046Z,100254.22
2023-05-21T20:10:13.633Z,100254.13
2023-05-21T20:12:41.145Z,100258.66
2023-05-21T20:15:09.346Z,100259.06
2023-05-21T20:17:39.343Z,100265.81
2023-05-21T20:20:10.304Z,100265.16
2023-05-21T20:22:37.925Z,100264.03
2023-05-21T20:25:08.527Z,100261.22
2023-05-21T20:27:38.521Z,100265.50
2023-05-21T20:30:07.808Z,100259.00
2023-05-21T20:32:35.655Z,100264.56
2023-05-21T20:35:05.047Z,100260.84
2023-05-21T20:37:33.806Z,100271.59
2023-05-21T20:40:01.369Z,100268.75
2023-05-21T20:42:34.575Z,100261.19
2023-05-21T20:45:02.906Z,100267.22
2023-05-21T20:47:51.044Z,100270.16
2023-05-21T20:50:21.717Z,100266.53
2023-05-21T20:52:49.569Z,100268.31
2023-05-21T20:55:17.267Z,100269.31
2023-05-21T20:57:44.817Z,100261.63
2023-05-21T21:00:13.610Z,100264.31
2023-05-21T21:02:41.313Z,100265.53
2023-05-21T21:05:10.308Z,100266.59
2023-05-21T21:07:40.019Z,100266.22
2023-05-21T21:10:08.565Z,100268.94
2023-05-21T21:12:36.115Z,100272.28
2023-05-21T21:15:03.907Z,100267.47
2023-05-21T21:17:31.485Z,100265.41
2023-05-21T21:19:59.045Z,100271.66
2023-05-21T21:22:26.753Z,100269.03
2023-05-21T21:24:55.746Z,100269.38
2023-05-21T21:27:23.888Z,100276.31
2023-05-21T21:29:51.420Z,100278.34
2023-05-21T21:32:18.977Z,100273.84
2023-05-21T21:34:46.530Z,100270.00
2023-05-21T21:37:14.071Z,100275.38
2023-05-21T21:39:41.626Z,100271.06
2023-05-21T21:42:11.112Z,100273.75
2023-05-21T21:44:39.271Z,100268.91
2023-05-21T21:47:07.377Z,100273.94
2023-05-21T21:49:35.115Z,100271.19
2023-05-21T21:52:02.688Z,100264.84
2023-05-21T21:54:30.344Z,100272.69
2023-05-21T21:56:57.965Z,100272.16
2023-05-21T21:59:26.861Z,100268.75
2023-05-21T22:01:54.436Z,100265.25
2023-05-21T22:04:22.159Z,100282.22
2023-05-21T22:06:50.057Z,100270.06
2023-05-21T22:09:17.961Z,100267.25
2023-05-21T22:11:45.525Z,100269.81
2023-05-21T22:14:13.082Z,100263.28
2023-05-21T22:16:43.130Z,100264.78
2023-05-21T22:19:12.769Z,100253.81
2023-05-21T22:21:41.908Z,100264.53
2023-05-21T22:24:20.629Z,100257.19
2023-05-21T22:26:57.409Z,100263.09
2023-05-21T22:29:24.977Z,100259.31
2023-05-21T22:31:53.995Z,100261.47
2023-05-21T22:34:22.285Z,100261.59
2023-05-21T22:36:49.865Z,100262.66
2023-05-21T22:39:17.997Z,100258.66
2023-05-21T22:41:45.796Z,100273.63
2023-05-21T22:44:13.429Z,100260.88
2023-05-21T22:46:42.170Z,100266.69
2023-05-21T22:49:11.154Z,100263.56
2023-05-21T22:51:39.160Z,100262.75
2023-05-21T22:54:06.777Z,100266.53
2023-05-21T22:56:34.355Z,100270.56
2023-05-21T22:59:01.913Z,100275.47
2023-05-21T23:01:29.506Z,100281.09
2023-05-21T23:03:57.025Z,100277.53
2023-05-21T23:06:25.900Z,100281.84
2023-05-21T23:08:53.464Z,100272.19
2023-05-21T23:11:21.236Z,100280.13
2023-05-21T23:13:48.715Z,100276.78
2023-05-21T23:16:16.890Z,100273.00
2023-05-21T23:18:44.526Z,100277.66
2023-05-21T23:21:12.165Z,100275.66
2023-05-21T23:23:41.085Z,100273.22
2023-05-21T23:26:08.621Z,100280.56
2023-05-21T23:28:37.102Z,100275.47
2023-05-21T23:31:04.787Z,100279.41
2023-05-21T23:33:32.366Z,100272.06
2023-05-21T23:35:59.975Z,100278.53
2023-05-21T23:38:27.559Z,100275.09
2023-05-21T23:40:56.417Z,100282.34
2023-05-21T23:43:23.905Z,100277.44
2023-05-21T23:45:51.463Z,100284.19
2023-05-21T23:48:19.063Z,100280.75
2023-05-21T23:50:46.612Z,100280.75
2023-05-21T23:53:14.124Z,100272.88
2023-05-21T23:55:42.238Z,100281.47
2023-05-21T23:58:11.425Z,100281.91
